sensor_id;sensor_type;location;lat;lon;timestamp;P1;durP1;ratioP1;P2;durP2;ratioP2
79361;SDS011;68830;47.566;19.012;2023-10-13T00:00:41;12.90;;;8.77;;
79361;SDS011;68830;47.566;19.012;2023-10-13T00:03:43;10.82;;;8.70;;
79361;SDS011;68830;47.566;19.012;2023-10-13T00:06:45;11.60;;;8.02;;
79361;SDS011;68830;47.566;19.012;2023-10-13T00:09:47;11.38;;;8.93;;
79361;SDS011;68830;47.566;19.012;2023-10-13T00:12:50;10.73;;;8.00;;
79361;SDS011;68830;47.566;19.012;2023-10-13T00:15:53;12.18;;;8.07;;
79361;SDS011;68830;47.566;19.012;2023-10-13T00:18:59;13.18;;;8.18;;
79361;SDS011;68830;47.566;19.012;2023-10-13T00:22:01;12.63;;;9.25;;
79361;SDS011;68830;47.566;19.012;2023-10-13T00:25:10;9.02;;;7.97;;
79361;SDS011;68830;47.566;19.012;2023-10-13T00:28:22;9.98;;;7.90;;
79361;SDS011;68830;47.566;19.012;2023-10-13T00:31:25;10.95;;;8.68;;
79361;SDS011;68830;47.566;19.012;2023-10-13T00:34:34;10.50;;;8.43;;
79361;SDS011;68830;47.566;19.012;2023-10-13T00:37:40;10.32;;;8.05;;
79361;SDS011;68830;47.566;19.012;2023-10-13T00:40:45;9.18;;;7.15;;
79361;SDS011;68830;47.566;19.012;2023-10-13T00:43:56;8.52;;;7.63;;
79361;SDS011;68830;47.566;19.012;2023-10-13T00:47:08;14.65;;;8.40;;
79361;SDS011;68830;47.566;19.012;2023-10-13T00:50:11;10.13;;;7.93;;
79361;SDS011;68830;47.566;19.012;2023-10-13T00:53:17;10.80;;;8.65;;
79361;SDS011;68830;47.566;19.012;2023-10-13T00:56:19;12.85;;;7.80;;
79361;SDS011;68830;47.566;19.012;2023-10-13T00:59:25;9.52;;;8.32;;
79361;SDS011;68830;47.566;19.012;2023-10-13T01:02:28;10.13;;;8.52;;
79361;SDS011;68830;47.566;19.012;2023-10-13T01:05:39;8.80;;;7.45;;
79361;SDS011;68830;47.566;19.012;2023-10-13T01:08:44;9.80;;;8.20;;
79361;SDS011;68830;47.566;19.012;2023-10-13T01:11:48;14.00;;;8.02;;
79361;SDS011;68830;47.566;19.012;2023-10-13T01:14:55;10.48;;;8.30;;
79361;SDS011;68830;47.566;19.012;2023-10-13T01:18:07;12.07;;;7.57;;
79361;SDS011;68830;47.566;19.012;2023-10-13T01:21:14;10.93;;;6.90;;
79361;SDS011;68830;47.566;19.012;2023-10-13T01:24:19;11.02;;;8.15;;
79361;SDS011;68830;47.566;19.012;2023-10-13T01:27:27;13.70;;;7.90;;
79361;SDS011;68830;47.566;19.012;2023-10-13T01:30:29;10.27;;;7.15;;
79361;SDS011;68830;47.566;19.012;2023-10-13T01:33:31;9.80;;;7.57;;
79361;SDS011;68830;47.566;19.012;2023-10-13T01:36:36;9.82;;;7.53;;
79361;SDS011;68830;47.566;19.012;2023-10-13T01:39:43;11.00;;;7.15;;
79361;SDS011;68830;47.566;19.012;2023-10-13T01:42:49;10.50;;;7.43;;
79361;SDS011;68830;47.566;19.012;2023-10-13T01:45:57;9.45;;;7.07;;
79361;SDS011;68830;47.566;19.012;2023-10-13T01:48:59;12.13;;;8.07;;
79361;SDS011;68830;47.566;19.012;2023-10-13T01:52:01;11.05;;;8.20;;
79361;SDS011;68830;47.566;19.012;2023-10-13T01:55:07;7.72;;;6.93;;
79361;SDS011;68830;47.566;19.012;2023-10-13T01:58:14;10.38;;;7.15;;
79361;SDS011;68830;47.566;19.012;2023-10-13T02:01:17;9.55;;;6.93;;
79361;SDS011;68830;47.566;19.012;2023-10-13T02:04:29;11.50;;;8.07;;
79361;SDS011;68830;47.566;19.012;2023-10-13T02:07:34;12.50;;;7.95;;
79361;SDS011;68830;47.566;19.012;2023-10-13T02:10:42;12.75;;;6.95;;
79361;SDS011;68830;47.566;19.012;2023-10-13T02:13:44;7.90;;;6.97;;
79361;SDS011;68830;47.566;19.012;2023-10-13T02:16:50;8.75;;;7.05;;
79361;SDS011;68830;47.566;19.012;2023-10-13T02:19:52;7.07;;;6.03;;
79361;SDS011;68830;47.566;19.012;2023-10-13T02:22:55;11.63;;;7.43;;
79361;SDS011;68830;47.566;19.012;2023-10-13T02:26:00;7.90;;;7.10;;
79361;SDS011;68830;47.566;19.012;2023-10-13T02:29:04;7.30;;;6.18;;
79361;SDS011;68830;47.566;19.012;2023-10-13T02:32:09;9.07;;;7.00;;
79361;SDS011;68830;47.566;19.012;2023-10-13T02:35:20;12.70;;;6.40;;
79361;SDS011;68830;47.566;19.012;2023-10-13T02:38:31;8.90;;;6.90;;
79361;SDS011;68830;47.566;19.012;2023-10-13T02:41:35;8.18;;;6.35;;
79361;SDS011;68830;47.566;19.012;2023-10-13T02:44:39;13.02;;;7.80;;
79361;SDS011;68830;47.566;19.012;2023-10-13T02:47:45;8.27;;;7.32;;
79361;SDS011;68830;47.566;19.012;2023-10-13T02:51:08;8.45;;;7.10;;
79361;SDS011;68830;47.566;19.012;2023-10-13T02:54:19;8.73;;;7.00;;
79361;SDS011;68830;47.566;19.012;2023-10-13T02:57:23;10.40;;;7.15;;
79361;SDS011;68830;47.566;19.012;2023-10-13T03:00:25;8.05;;;6.25;;
79361;SDS011;68830;47.566;19.012;2023-10-13T03:03:33;7.75;;;5.97;;
79361;SDS011;68830;47.566;19.012;2023-10-13T03:06:36;10.43;;;6.63;;
79361;SDS011;68830;47.566;19.012;2023-10-13T03:09:41;6.95;;;6.10;;
79361;SDS011;68830;47.566;19.012;2023-10-13T03:12:53;9.68;;;7.07;;
79361;SDS011;68830;47.566;19.012;2023-10-13T03:15:56;8.90;;;6.43;;
79361;SDS011;68830;47.566;19.012;2023-10-13T03:18:59;9.98;;;7.18;;
79361;SDS011;68830;47.566;19.012;2023-10-13T03:22:00;11.50;;;8.50;;
79361;SDS011;68830;47.566;19.012;2023-10-13T03:25:13;8.77;;;6.03;;
79361;SDS011;68830;47.566;19.012;2023-10-13T03:31:35;8.63;;;6.18;;
79361;SDS011;68830;47.566;19.012;2023-10-13T03:34:39;9.63;;;7.10;;
79361;SDS011;68830;47.566;19.012;2023-10-13T03:37:50;8.38;;;6.15;;
79361;SDS011;68830;47.566;19.012;2023-10-13T03:40:52;10.48;;;6.88;;
79361;SDS011;68830;47.566;19.012;2023-10-13T03:43:59;9.63;;;6.30;;
79361;SDS011;68830;47.566;19.012;2023-10-13T03:47:14;13.15;;;7.40;;
79361;SDS011;68830;47.566;19.012;2023-10-13T03:50:28;8.15;;;7.03;;
79361;SDS011;68830;47.566;19.012;2023-10-13T03:53:34;10.52;;;9.45;;
79361;SDS011;68830;47.566;19.012;2023-10-13T03:56:37;10.23;;;8.43;;
79361;SDS011;68830;47.566;19.012;2023-10-13T03:59:43;13.27;;;7.93;;
79361;SDS011;68830;47.566;19.012;2023-10-13T04:02:50;10.85;;;8.02;;
79361;SDS011;68830;47.566;19.012;2023-10-13T04:06:05;11.93;;;8.38;;
79361;SDS011;68830;47.566;19.012;2023-10-13T04:09:13;9.35;;;7.88;;
79361;SDS011;68830;47.566;19.012;2023-10-13T04:12:31;11.00;;;7.90;;
79361;SDS011;68830;47.566;19.012;2023-10-13T04:19:36;11.45;;;7.32;;
79361;SDS011;68830;47.566;19.012;2023-10-13T04:22:58;11.98;;;10.10;;
79361;SDS011;68830;47.566;19.012;2023-10-13T04:26:20;10.55;;;7.50;;
79361;SDS011;68830;47.566;19.012;2023-10-13T04:29:23;11.40;;;7.93;;
79361;SDS011;68830;47.566;19.012;2023-10-13T04:32:44;8.88;;;7.88;;
79361;SDS011;68830;47.566;19.012;2023-10-13T04:39:29;8.55;;;7.07;;
79361;SDS011;68830;47.566;19.012;2023-10-13T04:42:37;11.90;;;7.50;;
79361;SDS011;68830;47.566;19.012;2023-10-13T04:45:51;9.88;;;7.88;;
79361;SDS011;68830;47.566;19.012;2023-10-13T04:48:58;10.98;;;7.85;;
79361;SDS011;68830;47.566;19.012;2023-10-13T04:52:03;10.82;;;7.40;;
79361;SDS011;68830;47.566;19.012;2023-10-13T04:55:15;11.48;;;7.72;;
79361;SDS011;68830;47.566;19.012;2023-10-13T04:58:43;12.32;;;7.55;;
79361;SDS011;68830;47.566;19.012;2023-10-13T05:02:08;9.23;;;7.38;;
79361;SDS011;68830;47.566;19.012;2023-10-13T05:05:30;10.13;;;7.68;;
79361;SDS011;68830;47.566;19.012;2023-10-13T05:08:51;10.10;;;8.15;;
79361;SDS011;68830;47.566;19.012;2023-10-13T05:12:28;10.75;;;7.80;;
79361;SDS011;68830;47.566;19.012;2023-10-13T05:15:50;10.07;;;8.23;;
79361;SDS011;68830;47.566;19.012;2023-10-13T05:19:11;10.75;;;7.22;;
79361;SDS011;68830;47.566;19.012;2023-10-13T05:22:33;12.77;;;7.20;;
79361;SDS011;68830;47.566;19.012;2023-10-13T05:25:54;9.95;;;8.23;;
79361;SDS011;68830;47.566;19.012;2023-10-13T05:29:15;10.77;;;8.02;;
79361;SDS011;68830;47.566;19.012;2023-10-13T05:32:36;10.18;;;7.50;;
79361;SDS011;68830;47.566;19.012;2023-10-13T05:35:57;10.60;;;8.10;;
79361;SDS011;68830;47.566;19.012;2023-10-13T05:39:19;9.48;;;7.35;;
79361;SDS011;68830;47.566;19.012;2023-10-13T05:42:40;14.38;;;7.93;;
79361;SDS011;68830;47.566;19.012;2023-10-13T05:46:01;11.43;;;9.43;;
79361;SDS011;68830;47.566;19.012;2023-10-13T05:49:42;11.43;;;7.90;;
79361;SDS011;68830;47.566;19.012;2023-10-13T05:53:06;11.80;;;8.18;;
79361;SDS011;68830;47.566;19.012;2023-10-13T05:56:13;10.13;;;7.25;;
79361;SDS011;68830;47.566;19.012;2023-10-13T05:59:34;10.82;;;7.38;;
79361;SDS011;68830;47.566;19.012;2023-10-13T06:02:56;11.82;;;9.90;;
79361;SDS011;68830;47.566;19.012;2023-10-13T06:06:16;13.10;;;10.75;;
79361;SDS011;68830;47.566;19.012;2023-10-13T06:09:37;12.45;;;11.25;;
79361;SDS011;68830;47.566;19.012;2023-10-13T06:12:59;11.65;;;10.55;;
79361;SDS011;68830;47.566;19.012;2023-10-13T06:16:20;11.55;;;10.45;;
79361;SDS011;68830;47.566;19.012;2023-10-13T06:19:41;14.88;;;10.73;;
79361;SDS011;68830;47.566;19.012;2023-10-13T06:23:02;12.05;;;10.88;;
79361;SDS011;68830;47.566;19.012;2023-10-13T06:26:23;12.85;;;11.30;;
79361;SDS011;68830;47.566;19.012;2023-10-13T06:29:45;14.25;;;10.73;;
79361;SDS011;68830;47.566;19.012;2023-10-13T06:32:47;16.27;;;9.02;;
79361;SDS011;68830;47.566;19.012;2023-10-13T06:35:51;12.52;;;8.85;;
79361;SDS011;68830;47.566;19.012;2023-10-13T06:38:57;14.30;;;7.70;;
79361;SDS011;68830;47.566;19.012;2023-10-13T06:42:19;13.02;;;8.52;;
79361;SDS011;68830;47.566;19.012;2023-10-13T06:45:24;9.07;;;7.03;;
79361;SDS011;68830;47.566;19.012;2023-10-13T06:48:29;9.90;;;7.20;;
79361;SDS011;68830;47.566;19.012;2023-10-13T06:51:34;10.15;;;7.95;;
79361;SDS011;68830;47.566;19.012;2023-10-13T06:54:39;10.57;;;8.52;;
79361;SDS011;68830;47.566;19.012;2023-10-13T06:57:43;10.55;;;7.57;;
79361;SDS011;68830;47.566;19.012;2023-10-13T07:00:47;15.40;;;8.20;;
79361;SDS011;68830;47.566;19.012;2023-10-13T07:03:55;11.98;;;9.55;;
79361;SDS011;68830;47.566;19.012;2023-10-13T07:07:03;19.88;;;12.70;;
79361;SDS011;68830;47.566;19.012;2023-10-13T07:10:08;14.82;;;12.25;;
79361;SDS011;68830;47.566;19.012;2023-10-13T07:13:11;20.80;;;13.07;;
79361;SDS011;68830;47.566;19.012;2023-10-13T07:16:16;16.65;;;13.52;;
79361;SDS011;68830;47.566;19.012;2023-10-13T07:19:30;16.65;;;12.77;;
79361;SDS011;68830;47.566;19.012;2023-10-13T07:22:38;15.32;;;12.98;;
79361;SDS011;68830;47.566;19.012;2023-10-13T07:25:41;19.25;;;14.55;;
79361;SDS011;68830;47.566;19.012;2023-10-13T07:28:46;16.58;;;14.73;;
79361;SDS011;68830;47.566;19.012;2023-10-13T07:31:50;19.90;;;15.63;;
79361;SDS011;68830;47.566;19.012;2023-10-13T07:34:52;23.92;;;17.38;;
79361;SDS011;68830;47.566;19.012;2023-10-13T07:37:57;18.95;;;16.45;;
79361;SDS011;68830;47.566;19.012;2023-10-13T07:41:01;20.00;;;17.05;;
79361;SDS011;68830;47.566;19.012;2023-10-13T07:44:09;20.92;;;17.08;;
79361;SDS011;68830;47.566;19.012;2023-10-13T07:47:15;19.13;;;17.05;;
79361;SDS011;68830;47.566;19.012;2023-10-13T07:50:20;18.13;;;16.33;;
79361;SDS011;68830;47.566;19.012;2023-10-13T07:53:27;19.15;;;16.83;;
79361;SDS011;68830;47.566;19.012;2023-10-13T07:56:36;21.35;;;17.58;;
79361;SDS011;68830;47.566;19.012;2023-10-13T07:59:41;18.45;;;16.38;;
79361;SDS011;68830;47.566;19.012;2023-10-13T08:02:56;19.42;;;17.52;;
79361;SDS011;68830;47.566;19.012;2023-10-13T08:06:11;25.42;;;17.95;;
79361;SDS011;68830;47.566;19.012;2023-10-13T08:09:13;20.20;;;18.05;;
79361;SDS011;68830;47.566;19.012;2023-10-13T08:12:41;23.50;;;18.55;;
79361;SDS011;68830;47.566;19.012;2023-10-13T08:15:46;26.15;;;19.35;;
79361;SDS011;68830;47.566;19.012;2023-10-13T08:18:56;20.33;;;18.00;;
79361;SDS011;68830;47.566;19.012;2023-10-13T08:21:59;21.60;;;19.13;;
79361;SDS011;68830;47.566;19.012;2023-10-13T08:25:28;36.58;;;21.45;;
79361;SDS011;68830;47.566;19.012;2023-10-13T08:28:56;22.55;;;18.17;;
79361;SDS011;68830;47.566;19.012;2023-10-13T08:31:59;29.20;;;18.67;;
79361;SDS011;68830;47.566;19.012;2023-10-13T08:35:17;23.60;;;18.38;;
79361;SDS011;68830;47.566;19.012;2023-10-13T08:38:31;20.77;;;18.60;;
79361;SDS011;68830;47.566;19.012;2023-10-13T08:41:52;23.58;;;20.45;;
79361;SDS011;68830;47.566;19.012;2023-10-13T08:45:15;23.05;;;19.15;;
79361;SDS011;68830;47.566;19.012;2023-10-13T08:48:30;25.95;;;20.33;;
79361;SDS011;68830;47.566;19.012;2023-10-13T08:51:35;23.27;;;20.88;;
79361;SDS011;68830;47.566;19.012;2023-10-13T08:55:06;24.83;;;21.33;;
79361;SDS011;68830;47.566;19.012;2023-10-13T08:58:29;33.55;;;22.95;;
79361;SDS011;68830;47.566;19.012;2023-10-13T09:01:50;27.63;;;21.48;;
79361;SDS011;68830;47.566;19.012;2023-10-13T09:05:07;26.73;;;21.70;;
79361;SDS011;68830;47.566;19.012;2023-10-13T09:08:32;29.52;;;21.40;;
79361;SDS011;68830;47.566;19.012;2023-10-13T09:11:46;24.65;;;20.63;;
79361;SDS011;68830;47.566;19.012;2023-10-13T09:17:59;28.52;;;21.45;;
79361;SDS011;68830;47.566;19.012;2023-10-13T09:21:28;21.65;;;18.90;;
79361;SDS011;68830;47.566;19.012;2023-10-13T09:24:46;25.98;;;20.20;;
79361;SDS011;68830;47.566;19.012;2023-10-13T09:27:52;23.15;;;20.83;;
79361;SDS011;68830;47.566;19.012;2023-10-13T09:30:55;24.23;;;20.27;;
79361;SDS011;68830;47.566;19.012;2023-10-13T09:34:00;24.92;;;20.45;;
79361;SDS011;68830;47.566;19.012;2023-10-13T09:37:03;25.90;;;21.88;;
79361;SDS011;68830;47.566;19.012;2023-10-13T09:40:08;22.55;;;19.08;;
79361;SDS011;68830;47.566;19.012;2023-10-13T09:43:26;30.17;;;21.73;;
79361;SDS011;68830;47.566;19.012;2023-10-13T09:46:30;24.75;;;19.65;;
79361;SDS011;68830;47.566;19.012;2023-10-13T09:49:38;23.50;;;21.02;;
79361;SDS011;68830;47.566;19.012;2023-10-13T09:52:47;29.45;;;21.85;;
79361;SDS011;68830;47.566;19.012;2023-10-13T09:59:10;22.10;;;19.40;;
79361;SDS011;68830;47.566;19.012;2023-10-13T10:02:15;33.70;;;22.33;;
79361;SDS011;68830;47.566;19.012;2023-10-13T10:05:26;24.02;;;20.88;;
79361;SDS011;68830;47.566;19.012;2023-10-13T10:08:29;27.77;;;21.88;;
79361;SDS011;68830;47.566;19.012;2023-10-13T10:11:52;21.75;;;19.45;;
79361;SDS011;68830;47.566;19.012;2023-10-13T10:15:19;24.55;;;21.98;;
79361;SDS011;68830;47.566;19.012;2023-10-13T10:18:45;29.13;;;23.27;;
79361;SDS011;68830;47.566;19.012;2023-10-13T10:21:47;28.02;;;19.83;;
79361;SDS011;68830;47.566;19.012;2023-10-13T10:24:55;25.08;;;21.10;;
79361;SDS011;68830;47.566;19.012;2023-10-13T10:28:00;24.02;;;19.45;;
79361;SDS011;68830;47.566;19.012;2023-10-13T10:31:06;25.05;;;20.55;;
79361;SDS011;68830;47.566;19.012;2023-10-13T10:34:16;25.35;;;20.63;;
79361;SDS011;68830;47.566;19.012;2023-10-13T10:40:22;26.20;;;18.80;;
79361;SDS011;68830;47.566;19.012;2023-10-13T10:43:44;22.25;;;17.65;;
79361;SDS011;68830;47.566;19.012;2023-10-13T10:46:49;20.52;;;16.20;;
79361;SDS011;68830;47.566;19.012;2023-10-13T10:50:00;25.60;;;18.63;;
79361;SDS011;68830;47.566;19.012;2023-10-13T10:53:08;20.63;;;17.17;;
79361;SDS011;68830;47.566;19.012;2023-10-13T10:56:11;20.33;;;16.50;;
79361;SDS011;68830;47.566;19.012;2023-10-13T10:59:36;24.42;;;16.88;;
79361;SDS011;68830;47.566;19.012;2023-10-13T11:02:41;28.65;;;18.25;;
79361;SDS011;68830;47.566;19.012;2023-10-13T11:05:45;23.60;;;17.83;;
79361;SDS011;68830;47.566;19.012;2023-10-13T11:08:47;24.42;;;17.58;;
79361;SDS011;68830;47.566;19.012;2023-10-13T11:11:53;27.02;;;19.05;;
79361;SDS011;68830;47.566;19.012;2023-10-13T11:15:01;23.23;;;16.90;;
79361;SDS011;68830;47.566;19.012;2023-10-13T11:18:11;24.20;;;17.55;;
79361;SDS011;68830;47.566;19.012;2023-10-13T11:21:22;22.27;;;13.70;;
79361;SDS011;68830;47.566;19.012;2023-10-13T11:24:38;21.77;;;14.07;;
79361;SDS011;68830;47.566;19.012;2023-10-13T11:27:41;17.75;;;14.57;;
79361;SDS011;68830;47.566;19.012;2023-10-13T11:30:54;20.80;;;14.88;;
79361;SDS011;68830;47.566;19.012;2023-10-13T11:34:01;22.90;;;14.75;;
79361;SDS011;68830;47.566;19.012;2023-10-13T11:37:07;15.48;;;13.60;;
79361;SDS011;68830;47.566;19.012;2023-10-13T11:40:35;18.33;;;13.50;;
79361;SDS011;68830;47.566;19.012;2023-10-13T11:44:01;19.20;;;13.95;;
79361;SDS011;68830;47.566;19.012;2023-10-13T11:47:28;18.23;;;13.50;;
79361;SDS011;68830;47.566;19.012;2023-10-13T11:50:50;17.25;;;13.95;;
79361;SDS011;68830;47.566;19.012;2023-10-13T11:53:52;29.73;;;14.27;;
79361;SDS011;68830;47.566;19.012;2023-10-13T11:56:54;17.35;;;14.52;;
79361;SDS011;68830;47.566;19.012;2023-10-13T12:00:00;22.98;;;14.23;;
79361;SDS011;68830;47.566;19.012;2023-10-13T12:03:23;18.23;;;12.73;;
79361;SDS011;68830;47.566;19.012;2023-10-13T12:06:44;16.75;;;12.20;;
79361;SDS011;68830;47.566;19.012;2023-10-13T12:09:48;19.10;;;12.90;;
79361;SDS011;68830;47.566;19.012;2023-10-13T12:12:57;20.88;;;12.20;;
79361;SDS011;68830;47.566;19.012;2023-10-13T12:16:06;16.73;;;11.75;;
79361;SDS011;68830;47.566;19.012;2023-10-13T12:22:14;13.02;;;11.40;;
79361;SDS011;68830;47.566;19.012;2023-10-13T12:25:27;19.65;;;12.18;;
79361;SDS011;68830;47.566;19.012;2023-10-13T12:28:35;14.65;;;11.10;;
79361;SDS011;68830;47.566;19.012;2023-10-13T12:31:43;13.45;;;12.07;;
79361;SDS011;68830;47.566;19.012;2023-10-13T12:34:54;13.95;;;11.18;;
79361;SDS011;68830;47.566;19.012;2023-10-13T12:38:02;13.23;;;9.57;;
79361;SDS011;68830;47.566;19.012;2023-10-13T12:41:07;19.67;;;11.82;;
79361;SDS011;68830;47.566;19.012;2023-10-13T12:44:35;15.68;;;9.63;;
79361;SDS011;68830;47.566;19.012;2023-10-13T12:47:56;17.00;;;9.90;;
79361;SDS011;68830;47.566;19.012;2023-10-13T12:51:17;14.90;;;10.25;;
79361;SDS011;68830;47.566;19.012;2023-10-13T12:54:42;14.35;;;10.68;;
79361;SDS011;68830;47.566;19.012;2023-10-13T12:57:48;13.25;;;9.05;;
79361;SDS011;68830;47.566;19.012;2023-10-13T13:00:50;12.75;;;9.32;;
79361;SDS011;68830;47.566;19.012;2023-10-13T13:03:57;15.00;;;8.50;;
79361;SDS011;68830;47.566;19.012;2023-10-13T13:07:00;15.65;;;8.65;;
79361;SDS011;68830;47.566;19.012;2023-10-13T13:10:02;11.93;;;8.82;;
79361;SDS011;68830;47.566;19.012;2023-10-13T13:13:04;10.80;;;7.88;;
79361;SDS011;68830;47.566;19.012;2023-10-13T13:16:07;14.27;;;7.88;;
79361;SDS011;68830;47.566;19.012;2023-10-13T13:19:09;12.32;;;7.05;;
79361;SDS011;68830;47.566;19.012;2023-10-13T13:22:13;12.93;;;7.07;;
79361;SDS011;68830;47.566;19.012;2023-10-13T13:25:14;14.55;;;7.63;;
79361;SDS011;68830;47.566;19.012;2023-10-13T13:28:19;11.25;;;6.93;;
79361;SDS011;68830;47.566;19.012;2023-10-13T13:31:25;10.32;;;8.10;;
79361;SDS011;68830;47.566;19.012;2023-10-13T13:34:28;10.25;;;7.45;;
79361;SDS011;68830;47.566;19.012;2023-10-13T13:37:31;10.57;;;7.05;;
79361;SDS011;68830;47.566;19.012;2023-10-13T13:40:33;10.75;;;7.72;;
79361;SDS011;68830;47.566;19.012;2023-10-13T13:43:36;12.48;;;7.05;;
79361;SDS011;68830;47.566;19.012;2023-10-13T13:47:05;16.25;;;6.35;;
79361;SDS011;68830;47.566;19.012;2023-10-13T13:50:13;13.27;;;7.18;;
79361;SDS011;68830;47.566;19.012;2023-10-13T13:53:22;14.93;;;7.20;;
79361;SDS011;68830;47.566;19.012;2023-10-13T13:56:29;9.55;;;6.72;;
79361;SDS011;68830;47.566;19.012;2023-10-13T13:59:33;10.73;;;6.07;;
79361;SDS011;68830;47.566;19.012;2023-10-13T14:02:35;13.68;;;5.78;;
79361;SDS011;68830;47.566;19.012;2023-10-13T14:05:40;10.48;;;6.90;;
79361;SDS011;68830;47.566;19.012;2023-10-13T14:08:44;8.60;;;6.07;;
79361;SDS011;68830;47.566;19.012;2023-10-13T14:11:50;8.98;;;5.93;;
79361;SDS011;68830;47.566;19.012;2023-10-13T14:15:18;11.50;;;6.43;;
79361;SDS011;68830;47.566;19.012;2023-10-13T14:18:25;10.10;;;5.80;;
79361;SDS011;68830;47.566;19.012;2023-10-13T14:21:32;10.23;;;5.47;;
79361;SDS011;68830;47.566;19.012;2023-10-13T14:24:37;7.93;;;4.75;;
79361;SDS011;68830;47.566;19.012;2023-10-13T14:27:49;6.88;;;4.22;;
79361;SDS011;68830;47.566;19.012;2023-10-13T14:30:52;6.40;;;4.35;;
79361;SDS011;68830;47.566;19.012;2023-10-13T14:33:54;8.80;;;4.03;;
79361;SDS011;68830;47.566;19.012;2023-10-13T14:36:57;6.60;;;4.05;;
79361;SDS011;68830;47.566;19.012;2023-10-13T14:40:00;10.82;;;4.40;;
79361;SDS011;68830;47.566;19.012;2023-10-13T14:43:02;11.15;;;4.32;;
79361;SDS011;68830;47.566;19.012;2023-10-13T14:46:07;7.07;;;4.03;;
79361;SDS011;68830;47.566;19.012;2023-10-13T14:49:10;6.03;;;3.92;;
79361;SDS011;68830;47.566;19.012;2023-10-13T14:52:12;8.75;;;4.18;;
79361;SDS011;68830;47.566;19.012;2023-10-13T14:55:15;5.90;;;2.95;;
79361;SDS011;68830;47.566;19.012;2023-10-13T14:58:20;6.88;;;4.32;;
79361;SDS011;68830;47.566;19.012;2023-10-13T15:01:28;6.00;;;3.58;;
79361;SDS011;68830;47.566;19.012;2023-10-13T15:04:30;6.75;;;4.10;;
79361;SDS011;68830;47.566;19.012;2023-10-13T15:07:35;6.38;;;3.30;;
79361;SDS011;68830;47.566;19.012;2023-10-13T15:10:38;8.48;;;4.05;;
79361;SDS011;68830;47.566;19.012;2023-10-13T15:13:40;7.10;;;3.97;;
79361;SDS011;68830;47.566;19.012;2023-10-13T15:16:43;9.15;;;5.32;;
79361;SDS011;68830;47.566;19.012;2023-10-13T15:19:45;11.48;;;6.03;;
79361;SDS011;68830;47.566;19.012;2023-10-13T15:22:48;10.60;;;5.60;;
79361;SDS011;68830;47.566;19.012;2023-10-13T15:25:52;10.82;;;6.47;;
79361;SDS011;68830;47.566;19.012;2023-10-13T15:28:55;9.40;;;5.55;;
79361;SDS011;68830;47.566;19.012;2023-10-13T15:32:02;8.02;;;5.82;;
79361;SDS011;68830;47.566;19.012;2023-10-13T15:35:05;7.95;;;4.97;;
79361;SDS011;68830;47.566;19.012;2023-10-13T15:38:15;7.80;;;4.30;;
79361;SDS011;68830;47.566;19.012;2023-10-13T15:41:22;9.57;;;4.35;;
79361;SDS011;68830;47.566;19.012;2023-10-13T15:44:28;6.15;;;3.95;;
79361;SDS011;68830;47.566;19.012;2023-10-13T15:47:32;7.78;;;4.13;;
79361;SDS011;68830;47.566;19.012;2023-10-13T15:50:38;7.88;;;4.40;;
79361;SDS011;68830;47.566;19.012;2023-10-13T15:53:42;8.68;;;5.07;;
79361;SDS011;68830;47.566;19.012;2023-10-13T15:56:47;11.25;;;3.88;;
79361;SDS011;68830;47.566;19.012;2023-10-13T15:59:50;11.38;;;4.28;;
79361;SDS011;68830;47.566;19.012;2023-10-13T16:02:53;10.30;;;4.47;;
79361;SDS011;68830;47.566;19.012;2023-10-13T16:05:56;12.00;;;4.55;;
79361;SDS011;68830;47.566;19.012;2023-10-13T16:08:59;9.55;;;4.07;;
79361;SDS011;68830;47.566;19.012;2023-10-13T16:12:02;7.32;;;4.03;;
79361;SDS011;68830;47.566;19.012;2023-10-13T16:15:07;8.27;;;4.00;;
79361;SDS011;68830;47.566;19.012;2023-10-13T16:18:15;8.82;;;4.00;;
79361;SDS011;68830;47.566;19.012;2023-10-13T16:21:24;5.78;;;3.80;;
79361;SDS011;68830;47.566;19.012;2023-10-13T16:24:26;5.47;;;3.67;;
79361;SDS011;68830;47.566;19.012;2023-10-13T16:27:30;7.07;;;3.50;;
79361;SDS011;68830;47.566;19.012;2023-10-13T16:30:32;6.85;;;3.70;;
79361;SDS011;68830;47.566;19.012;2023-10-13T16:33:34;8.45;;;4.18;;
79361;SDS011;68830;47.566;19.012;2023-10-13T16:36:43;7.50;;;3.97;;
79361;SDS011;68830;47.566;19.012;2023-10-13T16:39:46;9.35;;;3.90;;
79361;SDS011;68830;47.566;19.012;2023-10-13T16:42:49;10.18;;;4.50;;
79361;SDS011;68830;47.566;19.012;2023-10-13T16:45:54;6.45;;;4.13;;
79361;SDS011;68830;47.566;19.012;2023-10-13T16:48:59;8.77;;;3.70;;
79361;SDS011;68830;47.566;19.012;2023-10-13T16:52:03;6.72;;;3.92;;
79361;SDS011;68830;47.566;19.012;2023-10-13T16:55:07;10.50;;;4.20;;
79361;SDS011;68830;47.566;19.012;2023-10-13T16:58:10;14.13;;;4.40;;
79361;SDS011;68830;47.566;19.012;2023-10-13T17:01:14;7.15;;;4.70;;
79361;SDS011;68830;47.566;19.012;2023-10-13T17:04:19;10.02;;;4.40;;
79361;SDS011;68830;47.566;19.012;2023-10-13T17:07:25;6.22;;;3.75;;
79361;SDS011;68830;47.566;19.012;2023-10-13T17:10:27;7.20;;;4.22;;
79361;SDS011;68830;47.566;19.012;2023-10-13T17:13:33;7.47;;;4.35;;
79361;SDS011;68830;47.566;19.012;2023-10-13T17:16:35;5.78;;;3.80;;
79361;SDS011;68830;47.566;19.012;2023-10-13T17:19:38;7.97;;;4.55;;
79361;SDS011;68830;47.566;19.012;2023-10-13T17:22:40;11.43;;;4.65;;
79361;SDS011;68830;47.566;19.012;2023-10-13T17:25:42;9.20;;;4.35;;
79361;SDS011;68830;47.566;19.012;2023-10-13T17:28:46;6.65;;;4.20;;
79361;SDS011;68830;47.566;19.012;2023-10-13T17:31:48;8.25;;;4.15;;
79361;SDS011;68830;47.566;19.012;2023-10-13T17:34:50;10.57;;;5.43;;
79361;SDS011;68830;47.566;19.012;2023-10-13T17:37:52;5.78;;;4.55;;
79361;SDS011;68830;47.566;19.012;2023-10-13T17:40:55;6.93;;;3.95;;
79361;SDS011;68830;47.566;19.012;2023-10-13T17:43:59;9.60;;;5.05;;
79361;SDS011;68830;47.566;19.012;2023-10-13T17:47:03;11.27;;;5.53;;
79361;SDS011;68830;47.566;19.012;2023-10-13T17:50:12;11.02;;;4.97;;
79361;SDS011;68830;47.566;19.012;2023-10-13T17:53:14;7.35;;;5.32;;
79361;SDS011;68830;47.566;19.012;2023-10-13T17:56:17;9.45;;;5.05;;
79361;SDS011;68830;47.566;19.012;2023-10-13T17:59:22;9.48;;;4.90;;
79361;SDS011;68830;47.566;19.012;2023-10-13T18:02:25;9.52;;;4.70;;
79361;SDS011;68830;47.566;19.012;2023-10-13T18:05:29;8.52;;;4.80;;
79361;SDS011;68830;47.566;19.012;2023-10-13T18:08:37;9.50;;;5.00;;
79361;SDS011;68830;47.566;19.012;2023-10-13T18:11:40;9.13;;;4.95;;
79361;SDS011;68830;47.566;19.012;2023-10-13T18:14:49;13.27;;;5.68;;
79361;SDS011;68830;47.566;19.012;2023-10-13T18:17:53;9.25;;;5.05;;
79361;SDS011;68830;47.566;19.012;2023-10-13T18:21:00;8.98;;;5.25;;
79361;SDS011;68830;47.566;19.012;2023-10-13T18:24:04;9.05;;;5.75;;
79361;SDS011;68830;47.566;19.012;2023-10-13T18:27:10;9.07;;;5.68;;
79361;SDS011;68830;47.566;19.012;2023-10-13T18:30:14;5.82;;;5.30;;
79361;SDS011;68830;47.566;19.012;2023-10-13T18:33:18;9.27;;;6.47;;
79361;SDS011;68830;47.566;19.012;2023-10-13T18:36:22;9.15;;;6.53;;
79361;SDS011;68830;47.566;19.012;2023-10-13T18:39:26;7.93;;;6.03;;
79361;SDS011;68830;47.566;19.012;2023-10-13T18:42:35;11.70;;;6.85;;
79361;SDS011;68830;47.566;19.012;2023-10-13T18:45:46;8.70;;;6.63;;